sensor_id;sensor_type;location;lat;lon;timestamp;temperature;humidity
31661;DHT22;18267;52.234;7.444;2022-07-12T00:00:06;16.10;99.90
31661;DHT22;18267;52.234;7.444;2022-07-12T00:02:32;15.90;99.90
31661;DHT22;18267;52.234;7.444;2022-07-12T00:04:59;16.00;99.90
31661;DHT22;18267;52.234;7.444;2022-07-12T00:07:24;16.00;99.90
31661;DHT22;18267;52.234;7.444;2022-07-12T00:09:50;16.00;99.90
31661;DHT22;18267;52.234;7.444;2022-07-12T00:12:16;16.00;99.90
31661;DHT22;18267;52.234;7.444;2022-07-12T00:14:42;16.00;99.90
31661;DHT22;18267;52.234;7.444;2022-07-12T00:17:07;15.90;99.90
31661;DHT22;18267;52.234;7.444;2022-07-12T00:19:33;15.90;99.90
31661;DHT22;18267;52.234;7.444;2022-07-12T00:21:58;15.80;99.90
31661;DHT22;18267;52.234;7.444;2022-07-12T00:24:30;15.70;99.90
31661;DHT22;18267;52.234;7.444;2022-07-12T00:26:55;15.50;99.90
31661;DHT22;18267;52.234;7.444;2022-07-12T00:29:21;15.50;99.90
31661;DHT22;18267;52.234;7.444;2022-07-12T00:31:47;15.40;99.90
31661;DHT22;18267;52.234;7.444;2022-07-12T00:34:13;15.30;99.90
31661;DHT22;18267;52.234;7.444;2022-07-12T00:36:38;15.30;99.90
31661;DHT22;18267;52.234;7.444;2022-07-12T00:39:04;15.20;99.90
31661;DHT22;18267;52.234;7.444;2022-07-12T00:41:31;15.10;99.90
31661;DHT22;18267;52.234;7.444;2022-07-12T00:43:58;15.20;99.90
31661;DHT22;18267;52.234;7.444;2022-07-12T00:46:24;15.40;99.90
31661;DHT22;18267;52.234;7.444;2022-07-12T00:48:50;15.50;99.90
31661;DHT22;18267;52.234;7.444;2022-07-12T00:51:18;15.50;99.90
31661;DHT22;18267;52.234;7.444;2022-07-12T00:53:48;15.50;99.90
31661;DHT22;18267;52.234;7.444;2022-07-12T00:56:15;15.50;99.90
31661;DHT22;18267;52.234;7.444;2022-07-12T00:58:43;15.50;99.90
31661;DHT22;18267;52.234;7.444;2022-07-12T01:01:09;15.40;99.90
31661;DHT22;18267;52.234;7.444;2022-07-12T01:03:35;15.40;99.90
31661;DHT22;18267;52.234;7.444;2022-07-12T01:06:01;15.40;99.90
31661;DHT22;18267;52.234;7.444;2022-07-12T01:08:27;15.40;99.90
31661;DHT22;18267;52.234;7.444;2022-07-12T01:10:53;15.40;99.90
31661;DHT22;18267;52.234;7.444;2022-07-12T01:13:19;15.40;99.90
31661;DHT22;18267;52.234;7.444;2022-07-12T01:15:47;15.50;99.90
31661;DHT22;18267;52.234;7.444;2022-07-12T01:18:13;15.40;99.90
31661;DHT22;18267;52.234;7.444;2022-07-12T01:20:40;15.30;99.90
31661;DHT22;18267;52.234;7.444;2022-07-12T01:23:06;15.20;99.90
31661;DHT22;18267;52.234;7.444;2022-07-12T01:25:33;15.20;99.90
31661;DHT22;18267;52.234;7.444;2022-07-12T01:27:59;15.30;99.90
31661;DHT22;18267;52.234;7.444;2022-07-12T01:30:24;15.30;99.90
31661;DHT22;18267;52.234;7.444;2022-07-12T01:32:51;15.10;99.90
31661;DHT22;18267;52.234;7.444;2022-07-12T01:35:17;15.10;99.90
31661;DHT22;18267;52.234;7.444;2022-07-12T01:37:46;15.00;99.90
31661;DHT22;18267;52.234;7.444;2022-07-12T01:40:14;14.80;99.90
31661;DHT22;18267;52.234;7.444;2022-07-12T01:42:42;14.80;99.90
31661;DHT22;18267;52.234;7.444;2022-07-12T01:45:11;14.80;99.90
31661;DHT22;18267;52.234;7.444;2022-07-12T01:47:37;14.90;99.90
31661;DHT22;18267;52.234;7.444;2022-07-12T01:50:05;14.80;99.90
31661;DHT22;18267;52.234;7.444;2022-07-12T01:52:31;14.80;99.90
31661;DHT22;18267;52.234;7.444;2022-07-12T01:54:57;14.90;99.90
31661;DHT22;18267;52.234;7.444;2022-07-12T01:57:24;15.00;99.90
31661;DHT22;18267;52.234;7.444;2022-07-12T01:59:50;14.90;99.90
31661;DHT22;18267;52.234;7.444;2022-07-12T02:02:17;14.70;99.90
31661;DHT22;18267;52.234;7.444;2022-07-12T02:04:42;14.80;99.90
31661;DHT22;18267;52.234;7.444;2022-07-12T02:07:08;14.80;99.90
31661;DHT22;18267;52.234;7.444;2022-07-12T02:09:34;14.80;99.90
31661;DHT22;18267;52.234;7.444;2022-07-12T02:11:59;14.80;99.90
31661;DHT22;18267;52.234;7.444;2022-07-12T02:14:25;14.80;99.90
31661;DHT22;18267;52.234;7.444;2022-07-12T02:16:52;14.90;99.90
31661;DHT22;18267;52.234;7.444;2022-07-12T02:19:17;15.00;99.90
31661;DHT22;18267;52.234;7.444;2022-07-12T02:21:43;15.00;99.90
31661;DHT22;18267;52.234;7.444;2022-07-12T02:24:08;14.90;99.90
31661;DHT22;18267;52.234;7.444;2022-07-12T02:26:35;14.90;99.90
31661;DHT22;18267;52.234;7.444;2022-07-12T02:29:02;14.90;99.90
31661;DHT22;18267;52.234;7.444;2022-07-12T02:31:28;14.70;99.90
31661;DHT22;18267;52.234;7.444;2022-07-12T02:33:54;14.50;99.90
31661;DHT22;18267;52.234;7.444;2022-07-12T02:36:20;14.40;99.90
31661;DHT22;18267;52.234;7.444;2022-07-12T02:38:45;14.30;99.90
31661;DHT22;18267;52.234;7.444;2022-07-12T02:41:11;14.30;99.90
31661;DHT22;18267;52.234;7.444;2022-07-12T02:43:36;14.40;99.90
31661;DHT22;18267;52.234;7.444;2022-07-12T02:48:29;14.40;99.90
31661;DHT22;18267;52.234;7.444;2022-07-12T02:50:55;14.30;99.90
31661;DHT22;18267;52.234;7.444;2022-07-12T02:53:20;14.40;99.90
31661;DHT22;18267;52.234;7.444;2022-07-12T02:55:46;14.50;99.90
31661;DHT22;18267;52.234;7.444;2022-07-12T02:58:12;14.40;99.90
31661;DHT22;18267;52.234;7.444;2022-07-12T03:00:37;14.30;99.90
31661;DHT22;18267;52.234;7.444;2022-07-12T03:03:03;14.30;99.90
31661;DHT22;18267;52.234;7.444;2022-07-12T03:05:29;14.30;99.90
31661;DHT22;18267;52.234;7.444;2022-07-12T03:07:55;14.30;99.90
31661;DHT22;18267;52.234;7.444;2022-07-12T03:10:21;14.40;99.90
31661;DHT22;18267;52.234;7.444;2022-07-12T03:12:47;14.40;99.90
31661;DHT22;18267;52.234;7.444;2022-07-12T03:15:13;14.50;99.90
31661;DHT22;18267;52.234;7.444;2022-07-12T03:17:38;14.50;99.90
31661;DHT22;18267;52.234;7.444;2022-07-12T03:20:05;14.50;99.90
31661;DHT22;18267;52.234;7.444;2022-07-12T03:22:45;14.50;99.90
31661;DHT22;18267;52.234;7.444;2022-07-12T03:25:14;14.40;99.90
31661;DHT22;18267;52.234;7.444;2022-07-12T03:27:39;14.20;99.90
31661;DHT22;18267;52.234;7.444;2022-07-12T03:30:06;14.20;99.90
31661;DHT22;18267;52.234;7.444;2022-07-12T03:32:32;14.20;99.90
31661;DHT22;18267;52.234;7.444;2022-07-12T03:34:58;14.20;99.90
31661;DHT22;18267;52.234;7.444;2022-07-12T03:37:24;14.20;99.90
31661;DHT22;18267;52.234;7.444;2022-07-12T03:39:50;14.30;99.90
31661;DHT22;18267;52.234;7.444;2022-07-12T03:42:15;14.40;99.90
31661;DHT22;18267;52.234;7.444;2022-07-12T03:44:44;14.50;99.90
31661;DHT22;18267;52.234;7.444;2022-07-12T03:47:11;14.50;99.90
31661;DHT22;18267;52.234;7.444;2022-07-12T03:49:45;14.50;99.90
31661;DHT22;18267;52.234;7.444;2022-07-12T03:52:11;14.40;99.90
31661;DHT22;18267;52.234;7.444;2022-07-12T03:54:37;14.30;99.90
31661;DHT22;18267;52.234;7.444;2022-07-12T03:57:10;14.30;99.90
31661;DHT22;18267;52.234;7.444;2022-07-12T03:59:45;14.40;99.90
31661;DHT22;18267;52.234;7.444;2022-07-12T04:02:12;14.50;99.90
31661;DHT22;18267;52.234;7.444;2022-07-12T04:04:38;14.50;99.90
31661;DHT22;18267;52.234;7.444;2022-07-12T04:07:05;14.50;99.90
31661;DHT22;18267;52.234;7.444;2022-07-12T04:09:30;14.50;99.90
31661;DHT22;18267;52.234;7.444;2022-07-12T04:11:56;14.40;99.90
31661;DHT22;18267;52.234;7.444;2022-07-12T04:14:22;14.30;99.90
31661;DHT22;18267;52.234;7.444;2022-07-12T04:16:47;14.40;99.90
31661;DHT22;18267;52.234;7.444;2022-07-12T04:19:13;14.30;99.90
31661;DHT22;18267;52.234;7.444;2022-07-12T04:21:38;14.30;99.90
31661;DHT22;18267;52.234;7.444;2022-07-12T04:24:05;14.50;99.90
31661;DHT22;18267;52.234;7.444;2022-07-12T04:26:31;14.60;99.90
31661;DHT22;18267;52.234;7.444;2022-07-12T04:28:56;14.60;99.90
31661;DHT22;18267;52.234;7.444;2022-07-12T04:31:23;14.60;99.90
31661;DHT22;18267;52.234;7.444;2022-07-12T04:33:48;14.60;99.90
31661;DHT22;18267;52.234;7.444;2022-07-12T04:36:14;14.60;99.90
31661;DHT22;18267;52.234;7.444;2022-07-12T04:38:39;14.60;99.90
31661;DHT22;18267;52.234;7.444;2022-07-12T04:41:05;14.60;99.90
31661;DHT22;18267;52.234;7.444;2022-07-12T04:43:30;14.60;99.90
31661;DHT22;18267;52.234;7.444;2022-07-12T04:45:56;14.50;99.90
31661;DHT22;18267;52.234;7.444;2022-07-12T04:48:30;14.50;99.90
31661;DHT22;18267;52.234;7.444;2022-07-12T04:50:56;14.50;99.90
31661;DHT22;18267;52.234;7.444;2022-07-12T04:53:27;14.50;99.90
31661;DHT22;18267;52.234;7.444;2022-07-12T04:55:56;14.50;99.90
31661;DHT22;18267;52.234;7.444;2022-07-12T04:58:24;14.60;99.90
31661;DHT22;18267;52.234;7.444;2022-07-12T05:00:50;14.60;99.90
31661;DHT22;18267;52.234;7.444;2022-07-12T05:03:16;14.70;99.90
31661;DHT22;18267;52.234;7.444;2022-07-12T05:05:43;14.70;99.90
31661;DHT22;18267;52.234;7.444;2022-07-12T05:08:09;14.70;99.90
31661;DHT22;18267;52.234;7.444;2022-07-12T05:10:35;14.80;99.90
31661;DHT22;18267;52.234;7.444;2022-07-12T05:13:02;14.80;99.90
31661;DHT22;18267;52.234;7.444;2022-07-12T05:15:28;15.00;99.90
31661;DHT22;18267;52.234;7.444;2022-07-12T05:17:54;15.00;99.90
31661;DHT22;18267;52.234;7.444;2022-07-12T05:20:20;15.10;99.90
31661;DHT22;18267;52.234;7.444;2022-07-12T05:22:47;15.20;99.90
31661;DHT22;18267;52.234;7.444;2022-07-12T05:25:13;15.30;99.90
31661;DHT22;18267;52.234;7.444;2022-07-12T05:27:41;15.40;99.90
31661;DHT22;18267;52.234;7.444;2022-07-12T05:30:07;15.50;99.90
31661;DHT22;18267;52.234;7.444;2022-07-12T05:32:48;15.60;99.90
31661;DHT22;18267;52.234;7.444;2022-07-12T05:35:56;15.80;99.90
31661;DHT22;18267;52.234;7.444;2022-07-12T05:39:29;15.90;99.90
31661;DHT22;18267;52.234;7.444;2022-07-12T05:42:41;16.10;99.90
31661;DHT22;18267;52.234;7.444;2022-07-12T05:46:01;16.30;99.90
31661;DHT22;18267;52.234;7.444;2022-07-12T05:49:33;16.50;99.90
31661;DHT22;18267;52.234;7.444;2022-07-12T05:52:08;16.70;99.90
31661;DHT22;18267;52.234;7.444;2022-07-12T05:58:39;17.00;99.90
31661;DHT22;18267;52.234;7.444;2022-07-12T06:05:10;17.20;99.90
31661;DHT22;18267;52.234;7.444;2022-07-12T06:08:49;17.30;99.90
31661;DHT22;18267;52.234;7.444;2022-07-12T06:11:41;17.30;99.90
31661;DHT22;18267;52.234;7.444;2022-07-12T06:14:18;17.40;99.90
31661;DHT22;18267;52.234;7.444;2022-07-12T06:17:19;17.50;99.90
31661;DHT22;18267;52.234;7.444;2022-07-12T06:19:51;17.60;99.90
31661;DHT22;18267;52.234;7.444;2022-07-12T06:22:27;17.70;99.90
31661;DHT22;18267;52.234;7.444;2022-07-12T06:25:33;17.70;99.90
31661;DHT22;18267;52.234;7.444;2022-07-12T06:28:39;17.70;99.90
31661;DHT22;18267;52.234;7.444;2022-07-12T06:31:06;17.80;99.90
31661;DHT22;18267;52.234;7.444;2022-07-12T06:33:32;17.90;99.90
31661;DHT22;18267;52.234;7.444;2022-07-12T06:35:57;17.90;99.90
31661;DHT22;18267;52.234;7.444;2022-07-12T06:38:23;17.90;99.90
31661;DHT22;18267;52.234;7.444;2022-07-12T06:40:48;17.90;99.90
31661;DHT22;18267;52.234;7.444;2022-07-12T06:43:14;17.90;99.90
31661;DHT22;18267;52.234;7.444;2022-07-12T06:45:40;18.00;99.90
31661;DHT22;18267;52.234;7.444;2022-07-12T06:48:06;18.00;99.90
31661;DHT22;18267;52.234;7.444;2022-07-12T06:50:32;18.10;99.90
31661;DHT22;18267;52.234;7.444;2022-07-12T06:52:58;18.20;99.90
31661;DHT22;18267;52.234;7.444;2022-07-12T06:55:23;18.20;99.90
31661;DHT22;18267;52.234;7.444;2022-07-12T06:57:49;18.30;99.90
31661;DHT22;18267;52.234;7.444;2022-07-12T07:00:15;18.30;99.90
31661;DHT22;18267;52.234;7.444;2022-07-12T07:02:41;18.40;99.90
31661;DHT22;18267;52.234;7.444;2022-07-12T07:05:07;18.40;99.90
31661;DHT22;18267;52.234;7.444;2022-07-12T07:07:33;18.50;99.90
31661;DHT22;18267;52.234;7.444;2022-07-12T07:09:59;18.60;99.90
31661;DHT22;18267;52.234;7.444;2022-07-12T07:12:24;18.70;99.90
31661;DHT22;18267;52.234;7.444;2022-07-12T07:14:50;18.70;99.90
31661;DHT22;18267;52.234;7.444;2022-07-12T07:17:16;18.80;99.90
31661;DHT22;18267;52.234;7.444;2022-07-12T07:19:43;18.80;99.90
31661;DHT22;18267;52.234;7.444;2022-07-12T07:22:10;18.90;99.90
31661;DHT22;18267;52.234;7.444;2022-07-12T07:24:35;18.90;99.90
31661;DHT22;18267;52.234;7.444;2022-07-12T07:27:01;19.00;99.90
31661;DHT22;18267;52.234;7.444;2022-07-12T07:29:26;19.20;99.90
31661;DHT22;18267;52.234;7.444;2022-07-12T07:32:11;19.40;99.90
31661;DHT22;18267;52.234;7.444;2022-07-12T07:34:37;19.60;99.90
31661;DHT22;18267;52.234;7.444;2022-07-12T07:37:02;19.90;99.90
31661;DHT22;18267;52.234;7.444;2022-07-12T07:39:28;20.10;99.90
31661;DHT22;18267;52.234;7.444;2022-07-12T07:41:54;20.30;99.90
31661;DHT22;18267;52.234;7.444;2022-07-12T07:44:19;20.40;99.90
31661;DHT22;18267;52.234;7.444;2022-07-12T07:46:45;20.40;99.90
31661;DHT22;18267;52.234;7.444;2022-07-12T07:49:10;20.40;99.90
31661;DHT22;18267;52.234;7.444;2022-07-12T07:51:36;20.40;99.90
31661;DHT22;18267;52.234;7.444;2022-07-12T07:54:01;20.40;99.90
31661;DHT22;18267;52.234;7.444;2022-07-12T07:56:28;20.40;99.90
31661;DHT22;18267;52.234;7.444;2022-07-12T07:58:54;20.40;99.90
31661;DHT22;18267;52.234;7.444;2022-07-12T08:01:20;20.40;99.90
31661;DHT22;18267;52.234;7.444;2022-07-12T08:03:45;20.40;99.90
31661;DHT22;18267;52.234;7.444;2022-07-12T08:06:11;20.50;99.90
31661;DHT22;18267;52.234;7.444;2022-07-12T08:08:36;20.50;99.90
31661;DHT22;18267;52.234;7.444;2022-07-12T08:11:02;20.60;99.90
31661;DHT22;18267;52.234;7.444;2022-07-12T08:13:28;20.60;99.90
31661;DHT22;18267;52.234;7.444;2022-07-12T08:15:54;20.60;99.90
31661;DHT22;18267;52.234;7.444;2022-07-12T08:18:19;20.60;99.90
31661;DHT22;18267;52.234;7.444;2022-07-12T08:20:45;20.60;99.90
31661;DHT22;18267;52.234;7.444;2022-07-12T08:23:11;20.60;99.90
31661;DHT22;18267;52.234;7.444;2022-07-12T08:25:37;20.70;99.90
31661;DHT22;18267;52.234;7.444;2022-07-12T08:28:02;20.70;99.90
31661;DHT22;18267;52.234;7.444;2022-07-12T08:30:28;20.80;99.90
31661;DHT22;18267;52.234;7.444;2022-07-12T08:32:53;20.80;99.90
31661;DHT22;18267;52.234;7.444;2022-07-12T08:35:20;20.90;99.90
31661;DHT22;18267;52.234;7.444;2022-07-12T08:37:46;20.90;99.90
31661;DHT22;18267;52.234;7.444;2022-07-12T08:40:11;20.90;99.90
31661;DHT22;18267;52.234;7.444;2022-07-12T08:42:40;20.90;99.90
31661;DHT22;18267;52.234;7.444;2022-07-12T08:45:07;20.90;99.90
31661;DHT22;18267;52.234;7.444;2022-07-12T08:47:33;20.90;99.90
31661;DHT22;18267;52.234;7.444;2022-07-12T08:50:18;20.90;99.90
31661;DHT22;18267;52.234;7.444;2022-07-12T08:52:48;20.90;99.90
31661;DHT22;18267;52.234;7.444;2022-07-12T08:55:31;20.90;99.90
31661;DHT22;18267;52.234;7.444;2022-07-12T08:57:59;20.90;99.90
31661;DHT22;18267;52.234;7.444;2022-07-12T09:00:29;20.90;99.90
31661;DHT22;18267;52.234;7.444;2022-07-12T09:02:56;20.90;99.90
31661;DHT22;18267;52.234;7.444;2022-07-12T09:05:25;20.90;99.90
31661;DHT22;18267;52.234;7.444;2022-07-12T09:07:51;20.80;99.90
31661;DHT22;18267;52.234;7.444;2022-07-12T09:10:18;20.90;99.90
31661;DHT22;18267;52.234;7.444;2022-07-12T09:12:44;20.90;99.90
31661;DHT22;18267;52.234;7.444;2022-07-12T09:15:21;21.10;99.90
31661;DHT22;18267;52.234;7.444;2022-07-12T09:18:02;21.10;99.90
31661;DHT22;18267;52.234;7.444;2022-07-12T09:20:32;21.10;99.90
31661;DHT22;18267;52.234;7.444;2022-07-12T09:23:06;21.10;99.90
31661;DHT22;18267;52.234;7.444;2022-07-12T09:25:32;21.10;99.90
31661;DHT22;18267;52.234;7.444;2022-07-12T09:27:59;21.10;99.90
31661;DHT22;18267;52.234;7.444;2022-07-12T09:30:26;21.30;99.90
31661;DHT22;18267;52.234;7.444;2022-07-12T09:33:00;21.40;99.90
31661;DHT22;18267;52.234;7.444;2022-07-12T09:35:58;21.50;99.90
31661;DHT22;18267;52.234;7.444;2022-07-12T09:41:04;21.50;99.90
31661;DHT22;18267;52.234;7.444;2022-07-12T09:43:31;21.60;99.90
31661;DHT22;18267;52.234;7.444;2022-07-12T09:45:58;21.70;99.90
31661;DHT22;18267;52.234;7.444;2022-07-12T09:48:26;21.70;99.90
31661;DHT22;18267;52.234;7.444;2022-07-12T09:50:52;21.80;99.90
31661;DHT22;18267;52.234;7.444;2022-07-12T09:53:28;21.90;99.90
31661;DHT22;18267;52.234;7.444;2022-07-12T09:55:54;22.00;99.90
31661;DHT22;18267;52.234;7.444;2022-07-12T09:58:23;22.10;99.90
31661;DHT22;18267;52.234;7.444;2022-07-12T10:00:51;22.10;99.90
31661;DHT22;18267;52.234;7.444;2022-07-12T10:03:21;22.20;99.90
31661;DHT22;18267;52.234;7.444;2022-07-12T10:05:50;22.30;99.90
31661;DHT22;18267;52.234;7.444;2022-07-12T10:08:17;22.40;99.90
31661;DHT22;18267;52.234;7.444;2022-07-12T10:10:43;22.30;99.90
31661;DHT22;18267;52.234;7.444;2022-07-12T10:13:10;22.40;99.90
31661;DHT22;18267;52.234;7.444;2022-07-12T10:15:36;22.40;99.90
31661;DHT22;18267;52.234;7.444;2022-07-12T10:18:02;22.40;99.90
31661;DHT22;18267;52.234;7.444;2022-07-12T10:20:29;22.40;99.90
31661;DHT22;18267;52.234;7.444;2022-07-12T10:25:39;22.50;99.90
31661;DHT22;18267;52.234;7.444;2022-07-12T10:28:04;22.60;99.90
31661;DHT22;18267;52.234;7.444;2022-07-12T10:30:30;22.70;99.90
31661;DHT22;18267;52.234;7.444;2022-07-12T10:33:15;22.80;99.90
31661;DHT22;18267;52.234;7.444;2022-07-12T10:36:00;22.90;99.90
31661;DHT22;18267;52.234;7.444;2022-07-12T10:38:27;22.90;99.90
31661;DHT22;18267;52.234;7.444;2022-07-12T10:40:54;22.90;99.90
31661;DHT22;18267;52.234;7.444;2022-07-12T10:43:27;22.90;99.90
31661;DHT22;18267;52.234;7.444;2022-07-12T10:46:18;22.90;99.90
31661;DHT22;18267;52.234;7.444;2022-07-12T10:48:45;22.90;99.90
31661;DHT22;18267;52.234;7.444;2022-07-12T10:51:18;22.90;99.90
31661;DHT22;18267;52.234;7.444;2022-07-12T10:53:45;22.90;99.90
31661;DHT22;18267;52.234;7.444;2022-07-12T10:56:23;23.00;99.90
31661;DHT22;18267;52.234;7.444;2022-07-12T10:58:54;23.10;99.90
31661;DHT22;18267;52.234;7.444;2022-07-12T11:01:31;23.30;99.90
31661;DHT22;18267;52.234;7.444;2022-07-12T11:04:10;23.40;99.90
31661;DHT22;18267;52.234;7.444;2022-07-12T11:06:37;23.40;99.90
31661;DHT22;18267;52.234;7.444;2022-07-12T11:09:06;23.50;99.90
31661;DHT22;18267;52.234;7.444;2022-07-12T11:11:46;23.40;99.90
31661;DHT22;18267;52.234;7.444;2022-07-12T11:14:25;23.40;99.90
31661;DHT22;18267;52.234;7.444;2022-07-12T11:16:52;23.40;99.90
31661;DHT22;18267;52.234;7.444;2022-07-12T11:19:22;23.50;99.90
31661;DHT22;18267;52.234;7.444;2022-07-12T11:21:49;23.50;99.90
31661;DHT22;18267;52.234;7.444;2022-07-12T11:24:22;23.60;99.90
31661;DHT22;18267;52.234;7.444;2022-07-12T11:26:48;23.60;99.90
31661;DHT22;18267;52.234;7.444;2022-07-12T11:29:14;23.60;99.90
31661;DHT22;18267;52.234;7.444;2022-07-12T11:31:39;23.70;99.90
31661;DHT22;18267;52.234;7.444;2022-07-12T11:34:05;23.80;99.90
31661;DHT22;18267;52.234;7.444;2022-07-12T11:36:31;23.80;99.90
31661;DHT22;18267;52.234;7.444;2022-07-12T11:38:57;23.70;99.90
31661;DHT22;18267;52.234;7.444;2022-07-12T11:41:24;23.60;99.90
31661;DHT22;18267;52.234;7.444;2022-07-12T11:43:50;23.70;99.90
31661;DHT22;18267;52.234;7.444;2022-07-12T11:46:16;23.90;99.90
31661;DHT22;18267;52.234;7.444;2022-07-12T11:48:42;23.80;99.90
31661;DHT22;18267;52.234;7.444;2022-07-12T11:51:12;23.90;99.90
31661;DHT22;18267;52.234;7.444;2022-07-12T11:53:40;24.00;99.90
31661;DHT22;18267;52.234;7.444;2022-07-12T11:56:08;24.10;99.90
31661;DHT22;18267;52.234;7.444;2022-07-12T11:58:34;24.20;99.90
31661;DHT22;18267;52.234;7.444;2022-07-12T12:01:10;24.10;99.90
31661;DHT22;18267;52.234;7.444;2022-07-12T12:03:46;24.00;99.90
31661;DHT22;18267;52.234;7.444;2022-07-12T12:06:12;24.10;99.90
31661;DHT22;18267;52.234;7.444;2022-07-12T12:08:38;24.20;99.90
31661;DHT22;18267;52.234;7.444;2022-07-12T12:11:04;24.30;99.90
31661;DHT22;18267;52.234;7.444;2022-07-12T12:13:30;24.40;99.90
31661;DHT22;18267;52.234;7.444;2022-07-12T12:16:00;24.50;99.90
31661;DHT22;18267;52.234;7.444;2022-07-12T12:18:30;24.40;99.90
31661;DHT22;18267;52.234;7.444;2022-07-12T12:21:03;24.50;99.90
31661;DHT22;18267;52.234;7.444;2022-07-12T12:23:29;24.50;99.90
31661;DHT22;18267;52.234;7.444;2022-07-12T12:26:17;24.60;99.90
31661;DHT22;18267;52.234;7.444;2022-07-12T12:28:52;24.50;99.80
31661;DHT22;18267;52.234;7.444;2022-07-12T12:31:22;24.60;99.90
31661;DHT22;18267;52.234;7.444;2022-07-12T12:33:55;24.60;99.90
31661;DHT22;18267;52.234;7.444;2022-07-12T12:36:28;24.70;99.90
31661;DHT22;18267;52.234;7.444;2022-07-12T12:39:00;24.70;99.90
31661;DHT22;18267;52.234;7.444;2022-07-12T12:41:30;24.80;99.90
31661;DHT22;18267;52.234;7.444;2022-07-12T12:44:03;24.90;99.90
31661;DHT22;18267;52.234;7.444;2022-07-12T12:46:52;25.00;99.90
31661;DHT22;18267;52.234;7.444;2022-07-12T12:49:49;25.10;99.90
31661;DHT22;18267;52.234;7.444;2022-07-12T12:52:16;25.10;99.90
31661;DHT22;18267;52.234;7.444;2022-07-12T12:54:41;25.00;99.90
31661;DHT22;18267;52.234;7.444;2022-07-12T12:57:08;25.10;99.90
31661;DHT22;18267;52.234;7.444;2022-07-12T12:59:35;25.10;99.90
31661;DHT22;18267;52.234;7.444;2022-07-12T13:02:01;25.20;99.90
31661;DHT22;18267;52.234;7.444;2022-07-12T13:04:35;25.30;99.90
31661;DHT22;18267;52.234;7.444;2022-07-12T13:07:01;25.50;99.90
31661;DHT22;18267;52.234;7.444;2022-07-12T13:09:28;25.50;99.90
31661;DHT22;18267;52.234;7.444;2022-07-12T13:11:57;25.60;99.90
31661;DHT22;18267;52.234;7.444;2022-07-12T13:14:23;25.60;99.90
31661;DHT22;18267;52.234;7.444;2022-07-12T13:16:49;25.80;99.90
31661;DHT22;18267;52.234;7.444;2022-07-12T13:19:15;25.80;99.90
31661;DHT22;18267;52.234;7.444;2022-07-12T13:21:41;25.90;99.90
31661;DHT22;18267;52.234;7.444;2022-07-12T13:24:06;26.00;99.90
31661;DHT22;18267;52.234;7.444;2022-07-12T13:26:32;26.00;99.90
31661;DHT22;18267;52.234;7.444;2022-07-12T13:28:58;25.90;98.90
31661;DHT22;18267;52.234;7.444;2022-07-12T13:31:24;25.90;99.10
31661;DHT22;18267;52.234;7.444;2022-07-12T13:33:51;25.90;99.40
31661;DHT22;18267;52.234;7.444;2022-07-12T13:36:17;25.90;99.60
31661;DHT22;18267;52.234;7.444;2022-07-12T13:38:43;25.80;99.80
31661;DHT22;18267;52.234;7.444;2022-07-12T13:41:08;26.00;99.90
31661;DHT22;18267;52.234;7.444;2022-07-12T13:43:34;26.00;99.60
31661;DHT22;18267;52.234;7.444;2022-07-12T13:46:00;26.00;99.20
31661;DHT22;18267;52.234;7.444;2022-07-12T13:48:26;26.10;99.30
31661;DHT22;18267;52.234;7.444;2022-07-12T13:50:51;26.10;98.00
31661;DHT22;18267;52.234;7.444;2022-07-12T13:53:17;26.10;98.60
31661;DHT22;18267;52.234;7.444;2022-07-12T13:55:43;26.00;98.40
31661;DHT22;18267;52.234;7.444;2022-07-12T13:58:10;26.00;98.00
31661;DHT22;18267;52.234;7.444;2022-07-12T14:00:35;25.90;98.70
31661;DHT22;18267;52.234;7.444;2022-07-12T14:03:01;25.80;98.90
31661;DHT22;18267;52.234;7.444;2022-07-12T14:05:27;25.80;98.90
31661;DHT22;18267;52.234;7.444;2022-07-12T14:07:53;25.70;99.30
31661;DHT22;18267;52.234;7.444;2022-07-12T14:10:19;25.80;99.90
31661;DHT22;18267;52.234;7.444;2022-07-12T14:12:45;25.80;99.80
31661;DHT22;18267;52.234;7.444;2022-07-12T14:15:11;25.90;99.80
31661;DHT22;18267;52.234;7.444;2022-07-12T14:20:09;25.90;99.30
31661;DHT22;18267;52.234;7.444;2022-07-12T14:22:36;26.00;98.30
31661;DHT22;18267;52.234;7.444;2022-07-12T14:25:02;26.10;97.20
31661;DHT22;18267;52.234;7.444;2022-07-12T14:27:33;26.10;96.90
31661;DHT22;18267;52.234;7.444;2022-07-12T14:29:58;26.00;96.10
31661;DHT22;18267;52.234;7.444;2022-07-12T14:32:24;25.90;96.20
31661;DHT22;18267;52.234;7.444;2022-07-12T14:34:50;26.00;96.90
31661;DHT22;18267;52.234;7.444;2022-07-12T14:37:15;26.10;95.00
31661;DHT22;18267;52.234;7.444;2022-07-12T14:39:41;26.20;94.60
31661;DHT22;18267;52.234;7.444;2022-07-12T14:42:07;26.20;94.30
31661;DHT22;18267;52.234;7.444;2022-07-12T14:44:32;26.30;95.10
31661;DHT22;18267;52.234;7.444;2022-07-12T14:46:58;26.30;93.60
31661;DHT22;18267;52.234;7.444;2022-07-12T14:49:24;26.30;93.70
31661;DHT22;18267;52.234;7.444;2022-07-12T14:51:50;26.30;93.50
31661;DHT22;18267;52.234;7.444;2022-07-12T14:54:16;26.40;93.70
31661;DHT22;18267;52.234;7.444;2022-07-12T14:56:41;26.40;93.60
31661;DHT22;18267;52.234;7.444;2022-07-12T14:59:07;26.40;93.70
31661;DHT22;18267;52.234;7.444;2022-07-12T15:01:33;26.40;93.80
31661;DHT22;18267;52.234;7.444;2022-07-12T15:03:58;26.40;93.30
31661;DHT22;18267;52.234;7.444;2022-07-12T15:06:24;26.30;94.30
31661;DHT22;18267;52.234;7.444;2022-07-12T15:08:55;26.40;95.00
31661;DHT22;18267;52.234;7.444;2022-07-12T15:11:20;26.40;95.30
31661;DHT22;18267;52.234;7.444;2022-07-12T15:13:46;26.30;95.90
31661;DHT22;18267;52.234;7.444;2022-07-12T15:16:12;26.30;96.20
31661;DHT22;18267;52.234;7.444;2022-07-12T15:18:37;26.30;96.10
31661;DHT22;18267;52.234;7.444;2022-07-12T15:21:05;26.30;97.00
31661;DHT22;18267;52.234;7.444;2022-07-12T15:23:31;26.30;97.00
31661;DHT22;18267;52.234;7.444;2022-07-12T15:25:57;26.30;97.00
31661;DHT22;18267;52.234;7.444;2022-07-12T15:28:27;26.30;96.60
31661;DHT22;18267;52.234;7.444;2022-07-12T15:30:57;26.20;96.70
31661;DHT22;18267;52.234;7.444;2022-07-12T15:33:23;26.20;97.40
31661;DHT22;18267;52.234;7.444;2022-07-12T15:35:50;26.20;97.00
31661;DHT22;18267;52.234;7.444;2022-07-12T15:38:16;26.20;96.80
31661;DHT22;18267;52.234;7.444;2022-07-12T15:40:42;26.20;97.10
31661;DHT22;18267;52.234;7.444;2022-07-12T15:43:08;26.30;97.30
31661;DHT22;18267;52.234;7.444;2022-07-12T15:45:34;26.30;97.40
31661;DHT22;18267;52.234;7.444;2022-07-12T15:47:59;26.20;97.90
31661;DHT22;18267;52.234;7.444;2022-07-12T15:50:25;26.20;97.80
31661;DHT22;18267;52.234;7.444;2022-07-12T15:52:50;26.20;97.80
31661;DHT22;18267;52.234;7.444;2022-07-12T15:55:35;26.20;98.10
31661;DHT22;18267;52.234;7.444;2022-07-12T15:58:02;26.20;97.40